createdAt,value
2022-11-22T00:00:57.394Z,18.95
2022-11-22T00:03:43.421Z,15.45
2022-11-22T00:06:29.074Z,15.25
2022-11-22T00:09:14.850Z,13.57
2022-11-22T00:12:00.284Z,14.90
2022-11-22T00:14:45.697Z,13.63
2022-11-22T00:17:34.662Z,16.30
2022-11-22T00:20:20.043Z,20.00
2022-11-22T00:23:05.335Z,26.50
2022-11-22T00:25:51.222Z,22.65
2022-11-22T00:28:36.649Z,20.80
2022-11-22T00:31:22.213Z,21.92
2022-11-22T00:34:07.996Z,22.85
2022-11-22T00:36:54.313Z,19.83
2022-11-22T00:39:39.734Z,19.95
2022-11-22T00:42:26.094Z,20.50
2022-11-22T00:45:11.934Z,21.65
2022-11-22T00:47:57.511Z,20.02
2022-11-22T00:50:42.936Z,17.77
2022-11-22T00:53:28.315Z,17.13
2022-11-22T00:56:13.795Z,20.38
2022-11-22T00:58:59.394Z,16.35
2022-11-22T01:01:45.143Z,17.58
2022-11-22T01:04:30.356Z,17.33
2022-11-22T01:07:15.724Z,18.02
2022-11-22T01:10:01.708Z,21.13
2022-11-22T01:12:47.118Z,18.05
2022-11-22T01:15:33.033Z,22.92
2022-11-22T01:18:18.389Z,22.88
2022-11-22T01:21:05.918Z,19.50
2022-11-22T01:23:51.418Z,18.15
2022-11-22T01:26:36.730Z,23.00
2022-11-22T01:29:22.168Z,19.75
2022-11-22T01:32:07.557Z,22.40
2022-11-22T01:34:52.998Z,21.88
2022-11-22T01:37:38.383Z,21.13
2022-11-22T01:40:23.725Z,27.17
2022-11-22T01:43:24.829Z,25.15
2022-11-22T01:46:22.505Z,22.15
2022-11-22T01:49:19.990Z,23.63
2022-11-22T01:52:20.463Z,25.17
2022-11-22T01:55:11.137Z,23.50
2022-11-22T01:57:57.670Z,24.30
2022-11-22T02:00:44.016Z,24.80
2022-11-22T02:03:32.726Z,27.77
2022-11-22T02:06:20.285Z,24.27
2022-11-22T02:09:14.282Z,27.27
2022-11-22T02:12:02.774Z,29.10
2022-11-22T02:14:49.413Z,23.58
2022-11-22T02:17:34.642Z,33.78
2022-11-22T02:20:20.034Z,33.25
2022-11-22T02:23:34.886Z,28.15
2022-11-22T02:26:21.009Z,30.23
2022-11-22T02:29:07.878Z,26.25
2022-11-22T02:31:53.060Z,32.40
2022-11-22T02:34:48.459Z,27.52
2022-11-22T02:37:34.137Z,32.22
2022-11-22T02:40:20.288Z,31.13
2022-11-22T02:43:11.470Z,29.27
2022-11-22T02:46:04.175Z,28.75
2022-11-22T02:48:50.283Z,29.67
2022-11-22T02:51:36.658Z,30.85
2022-11-22T02:54:22.355Z,35.15
2022-11-22T02:57:07.657Z,29.00
2022-11-22T02:59:53.049Z,34.00
2022-11-22T03:02:38.229Z,30.48
2022-11-22T03:05:23.878Z,36.08
2022-11-22T03:08:09.186Z,35.92
2022-11-22T03:10:57.584Z,27.50
2022-11-22T03:13:42.894Z,33.42
2022-11-22T03:16:28.141Z,30.50
2022-11-22T03:19:14.217Z,29.75
2022-11-22T03:21:59.480Z,29.25
2022-11-22T03:24:44.787Z,27.20
2022-11-22T03:27:30.287Z,27.85
2022-11-22T03:30:15.911Z,26.75
2022-11-22T03:33:01.592Z,27.25
2022-11-22T03:35:46.929Z,26.17
2022-11-22T03:38:34.034Z,32.22
2022-11-22T03:41:19.753Z,26.08
2022-11-22T03:44:05.260Z,34.28
2022-11-22T03:46:50.656Z,29.40
2022-11-22T03:49:36.105Z,29.67
2022-11-22T03:52:21.377Z,32.78
2022-11-22T03:55:07.067Z,30.60
2022-11-22T03:57:52.466Z,47.47
2022-11-22T04:00:37.776Z,73.32
2022-11-22T04:03:23.194Z,48.53
2022-11-22T04:06:08.449Z,47.42
2022-11-22T04:08:53.798Z,43.78
2022-11-22T04:11:39.168Z,35.05
2022-11-22T04:14:43.156Z,36.45
2022-11-22T04:17:40.743Z,43.85
2022-11-22T04:20:48.074Z,45.15
2022-11-22T04:23:34.372Z,33.85
2022-11-22T04:26:20.442Z,33.80
2022-11-22T04:29:10.367Z,39.40
2022-11-22T04:32:14.646Z,29.95
2022-11-22T04:34:59.956Z,29.02
2022-11-22T04:37:52.027Z,34.30
2022-11-22T04:40:38.121Z,36.95
2022-11-22T04:43:45.009Z,31.95
2022-11-22T04:46:31.429Z,29.42
2022-11-22T04:49:16.786Z,31.60
2022-11-22T04:52:21.408Z,32.08
2022-11-22T04:55:07.760Z,35.40
2022-11-22T04:57:59.123Z,27.67
2022-11-22T05:00:45.860Z,25.88
2022-11-22T05:03:31.073Z,27.15
2022-11-22T05:06:16.479Z,26.70
2022-11-22T05:09:01.724Z,29.73
2022-11-22T05:11:46.935Z,29.85
2022-11-22T05:14:32.185Z,27.88
2022-11-22T05:17:18.028Z,30.58
2022-11-22T05:20:05.551Z,30.20
2022-11-22T05:23:09.645Z,33.78
2022-11-22T05:25:55.035Z,31.70
2022-11-22T05:28:40.423Z,34.88
2022-11-22T05:31:27.559Z,29.25
2022-11-22T05:34:13.154Z,29.50
2022-11-22T05:36:59.144Z,29.25
2022-11-22T05:39:45.000Z,25.77
2022-11-22T05:42:31.364Z,22.60
2022-11-22T05:45:17.417Z,25.05
2022-11-22T05:48:03.050Z,23.23
2022-11-22T05:50:48.534Z,25.55
2022-11-22T05:53:35.767Z,23.38
2022-11-22T05:56:24.073Z,27.45
2022-11-22T05:59:09.915Z,28.55
2022-11-22T06:01:55.548Z,22.60
2022-11-22T06:04:41.135Z,26.55
2022-11-22T06:07:26.831Z,20.73
2022-11-22T06:10:12.754Z,22.40
2022-11-22T06:12:58.466Z,21.08
2022-11-22T06:15:43.647Z,16.35
2022-11-22T06:18:29.122Z,18.38
2022-11-22T06:21:20.293Z,25.45
2022-11-22T06:24:06.267Z,24.33
2022-11-22T06:26:51.601Z,20.48
2022-11-22T06:29:37.055Z,23.65
2022-11-22T06:32:22.589Z,28.58
2022-11-22T06:35:08.298Z,22.33
2022-11-22T06:38:00.518Z,21.55
2022-11-22T06:40:46.873Z,18.08
2022-11-22T06:43:33.825Z,23.00
2022-11-22T06:46:21.686Z,28.33
2022-11-22T06:49:07.091Z,25.05
2022-11-22T06:51:52.557Z,44.33
2022-11-22T06:54:38.122Z,46.83
2022-11-22T06:57:23.738Z,43.15
2022-11-22T07:00:09.627Z,34.00
2022-11-22T07:02:54.994Z,36.33
2022-11-22T07:05:40.256Z,29.05
2022-11-22T07:08:25.931Z,27.67
2022-11-22T07:11:13.741Z,27.70
2022-11-22T07:14:07.069Z,23.73
2022-11-22T07:16:54.030Z,30.65
2022-11-22T07:19:39.442Z,25.20
2022-11-22T07:22:25.034Z,34.65
2022-11-22T07:25:10.583Z,35.17
2022-11-22T07:27:56.015Z,24.88
2022-11-22T07:30:44.155Z,23.77
2022-11-22T07:33:30.745Z,23.45
2022-11-22T07:36:19.176Z,25.42
2022-11-22T07:39:04.610Z,19.48
2022-11-22T07:41:49.904Z,26.05
2022-11-22T07:44:35.242Z,20.85
2022-11-22T07:47:23.002Z,22.65
2022-11-22T07:50:09.166Z,20.65
2022-11-22T07:52:58.831Z,25.10
2022-11-22T07:55:44.500Z,19.35
2022-11-22T07:58:30.152Z,21.38
2022-11-22T08:01:17.515Z,21.52
2022-11-22T08:04:03.247Z,21.48
2022-11-22T08:06:48.626Z,29.92
2022-11-22T08:09:33.853Z,26.05
2022-11-22T08:12:19.889Z,30.55
2022-11-22T08:15:07.567Z,26.70
2022-11-22T08:17:52.900Z,22.40
2022-11-22T08:20:38.247Z,22.42
2022-11-22T08:23:23.719Z,29.02
2022-11-22T08:26:12.563Z,28.38
2022-11-22T08:28:57.857Z,24.60
2022-11-22T08:31:43.222Z,20.67
2022-11-22T08:34:28.558Z,30.55
2022-11-22T08:37:13.837Z,31.40
2022-11-22T08:39:59.299Z,21.50
2022-11-22T08:42:44.657Z,25.67
2022-11-22T08:45:30.085Z,18.15
2022-11-22T08:48:21.693Z,17.17
2022-11-22T08:51:11.065Z,22.23
2022-11-22T08:53:56.514Z,22.73
2022-11-22T08:56:42.345Z,16.90
2022-11-22T08:59:28.578Z,21.65
2022-11-22T09:02:14.310Z,19.77
2022-11-22T09:04:59.912Z,21.30
2022-11-22T09:10:51.365Z,19.67
2022-11-22T09:13:36.845Z,20.83
2022-11-22T09:16:22.312Z,20.50
2022-11-22T09:19:07.733Z,18.00
2022-11-22T09:21:53.006Z,17.08
2022-11-22T09:24:38.286Z,19.13
2022-11-22T09:27:23.881Z,23.80
2022-11-22T09:30:09.745Z,21.75
2022-11-22T09:32:55.740Z,26.58
2022-11-22T09:35:41.121Z,18.23
2022-11-22T09:38:27.176Z,20.58
2022-11-22T09:41:16.046Z,30.65
2022-11-22T09:44:23.618Z,30.13
2022-11-22T09:47:17.430Z,26.95
2022-11-22T09:50:25.167Z,39.83
2022-11-22T09:53:29.943Z,23.00
2022-11-22T09:56:18.485Z,35.33
2022-11-22T09:59:13.981Z,41.90
2022-11-22T10:02:18.376Z,27.92
2022-11-22T10:05:14.867Z,41.75
2022-11-22T10:08:13.379Z,46.53
2022-11-22T10:11:01.299Z,34.53
2022-11-22T10:14:04.680Z,26.23
2022-11-22T10:17:01.226Z,24.08
2022-11-22T10:20:04.179Z,28.83
2022-11-22T10:22:49.696Z,24.67
2022-11-22T10:25:48.223Z,24.92
2022-11-22T10:28:44.702Z,21.38
2022-11-22T10:31:45.867Z,26.38
2022-11-22T10:34:43.671Z,28.63
2022-11-22T10:37:42.960Z,22.67
2022-11-22T10:41:03.247Z,25.48
2022-11-22T10:44:01.622Z,20.45
2022-11-22T10:47:07.381Z,22.77
2022-11-22T10:50:13.394Z,18.30
2022-11-22T10:53:18.674Z,20.80
2022-11-22T10:56:29.679Z,20.83
2022-11-22T10:59:14.744Z,25.83
2022-11-22T11:02:16.575Z,22.42
2022-11-22T11:05:07.611Z,24.63
2022-11-22T11:07:56.746Z,22.30
2022-11-22T11:10:49.604Z,25.48
2022-11-22T11:13:42.131Z,26.52
2022-11-22T11:19:25.655Z,18.17
2022-11-22T11:22:44.271Z,16.73
2022-11-22T11:25:40.400Z,15.05
2022-11-22T11:28:30.863Z,11.82
2022-11-22T11:31:21.864Z,12.50
2022-11-22T11:34:25.738Z,16.35
2022-11-22T11:37:33.080Z,11.98
2022-11-22T11:40:31.375Z,14.50
2022-11-22T11:43:22.570Z,15.00
2022-11-22T11:46:18.003Z,13.35
2022-11-22T11:49:11.089Z,11.55
2022-11-22T11:52:03.604Z,18.33
2022-11-22T11:54:54.013Z,13.93
2022-11-22T11:57:44.061Z,14.82
2022-11-22T12:00:38.277Z,14.65
2022-11-22T12:03:25.322Z,16.45
2022-11-22T12:06:14.543Z,14.75
2022-11-22T12:09:01.747Z,12.45
2022-11-22T12:11:51.906Z,12.93
2022-11-22T12:15:09.145Z,13.30
2022-11-22T12:17:52.737Z,11.70
2022-11-22T12:20:53.638Z,12.40
2022-11-22T12:24:19.573Z,16.67
2022-11-22T12:27:03.584Z,16.98
2022-11-22T12:29:49.783Z,13.38
2022-11-22T12:32:41.139Z,23.63
2022-11-22T12:35:29.678Z,18.38
2022-11-22T12:38:23.908Z,16.67
2022-11-22T12:41:13.939Z,16.83
2022-11-22T12:44:05.974Z,18.95
2022-11-22T12:46:56.531Z,15.57
2022-11-22T12:49:44.911Z,15.70
2022-11-22T12:52:43.939Z,18.80
2022-11-22T12:55:48.104Z,16.38
2022-11-22T12:58:47.758Z,18.30
2022-11-22T13:01:42.510Z,19.38
2022-11-22T13:04:52.615Z,18.98
2022-11-22T13:08:06.119Z,17.30
2022-11-22T13:10:57.904Z,19.58
2022-11-22T13:13:48.119Z,32.15
2022-11-22T13:16:34.697Z,28.48
2022-11-22T13:19:24.914Z,29.80
2022-11-22T13:22:16.171Z,19.00
2022-11-22T13:25:20.127Z,15.68
2022-11-22T13:28:16.494Z,20.23
2022-11-22T13:31:17.193Z,22.33
2022-11-22T13:34:04.312Z,21.30
2022-11-22T13:36:50.435Z,18.15
2022-11-22T13:39:42.997Z,21.55
2022-11-22T13:42:28.784Z,20.33
2022-11-22T13:45:25.267Z,18.30
2022-11-22T13:48:10.997Z,21.77
2022-11-22T13:50:56.743Z,25.25
2022-11-22T13:53:44.696Z,28.85
2022-11-22T13:56:36.260Z,32.92
2022-11-22T13:59:21.955Z,51.38
2022-11-22T14:02:23.063Z,53.35
2022-11-22T14:05:20.711Z,55.75
2022-11-22T14:08:26.524Z,43.00
2022-11-22T14:11:40.659Z,31.60
2022-11-22T14:14:44.483Z,33.70
2022-11-22T14:17:49.802Z,32.00
2022-11-22T14:20:41.505Z,40.00
2022-11-22T14:23:49.432Z,41.10
2022-11-22T14:27:11.751Z,32.95
2022-11-22T14:30:16.301Z,50.22
2022-11-22T14:33:23.424Z,43.38
2022-11-22T14:36:12.213Z,44.50
2022-11-22T14:38:57.775Z,37.88
2022-11-22T14:41:44.242Z,34.70
2022-11-22T14:44:34.559Z,43.72
2022-11-22T14:47:20.433Z,46.85
2022-11-22T14:50:27.953Z,43.05
2022-11-22T14:53:37.809Z,35.20
2022-11-22T14:56:31.393Z,27.23
2022-11-22T14:59:36.690Z,22.42
2022-11-22T15:03:04.084Z,17.40
2022-11-22T15:09:13.693Z,21.17
2022-11-22T15:09:50.866Z,20.53
2022-11-22T15:13:07.684Z,21.52
2022-11-22T15:57:49.000Z,27.63
2022-11-22T16:00:34.916Z,20.83
2022-11-22T16:03:30.433Z,22.95
2022-11-22T16:06:19.226Z,21.20
2022-11-22T16:09:06.301Z,24.80
2022-11-22T16:12:01.859Z,19.75
2022-11-22T16:14:51.799Z,26.55
2022-11-22T16:17:59.460Z,21.58
2022-11-22T16:21:03.983Z,24.85
2022-11-22T16:24:11.612Z,18.38
2022-11-22T16:27:05.364Z,19.08
2022-11-22T16:29:51.757Z,24.25
2022-11-22T16:32:37.710Z,39.47
2022-11-22T16:35:29.537Z,34.58
2022-11-22T16:38:15.090Z,34.90
2022-11-22T16:41:01.243Z,33.40
2022-11-22T16:43:53.017Z,33.83
2022-11-22T16:46:40.648Z,30.52
2022-11-22T16:49:26.360Z,27.25
2022-11-22T16:52:13.763Z,22.38
2022-11-22T16:55:00.206Z,27.85
2022-11-22T16:57:53.549Z,37.70
2022-11-22T17:00:42.913Z,31.40
2022-11-22T17:03:33.922Z,21.02
2022-11-22T17:06:23.574Z,12.32
2022-11-22T17:09:09.846Z,14.27
2022-11-22T17:11:55.225Z,11.52
2022-11-22T17:14:40.757Z,16.45
2022-11-22T17:17:26.674Z,11.52
2022-11-22T17:20:12.732Z,13.55
2022-11-22T17:22:58.181Z,11.60
2022-11-22T17:25:43.677Z,21.13
2022-11-22T17:28:31.642Z,24.42
2022-11-22T17:31:20.097Z,27.13
2022-11-22T17:34:06.260Z,35.85
2022-11-22T17:36:51.577Z,24.52
2022-11-22T17:39:37.135Z,55.50
2022-11-22T17:42:24.666Z,51.20
2022-11-22T17:45:10.403Z,48.28
2022-11-22T17:47:56.015Z,55.50
2022-11-22T17:50:41.459Z,46.13
2022-11-22T17:53:26.802Z,56.63
2022-11-22T17:56:13.030Z,43.90
2022-11-22T17:58:58.739Z,49.15
2022-11-22T18:01:44.966Z,54.25
2022-11-22T18:04:30.567Z,75.82
2022-11-22T18:07:16.185Z,65.35
2022-11-22T18:10:02.377Z,65.60
2022-11-22T18:13:13.669Z,76.85
2022-11-22T18:16:01.708Z,75.10
2022-11-22T18:18:57.537Z,60.55
2022-11-22T18:21:43.618Z,66.70
2022-11-22T18:24:29.007Z,54.33
2022-11-22T18:27:14.645Z,65.07
2022-11-22T18:30:00.955Z,63.22
2022-11-22T18:32:46.444Z,77.82
2022-11-22T18:35:32.744Z,87.10
2022-11-22T18:38:18.167Z,93.45
2022-11-22T18:41:05.265Z,78.53
2022-11-22T18:43:50.865Z,83.88
2022-11-22T18:46:36.286Z,79.20
2022-11-22T18:49:22.045Z,89.88
2022-11-22T18:52:09.665Z,108.15
2022-11-22T18:54:57.661Z,90.28
2022-11-22T18:57:44.484Z,135.27
2022-11-22T19:00:30.183Z,123.57
2022-11-22T19:03:16.484Z,107.07
2022-11-22T19:06:05.329Z,114.40
2022-11-22T19:08:51.236Z,99.68
2022-11-22T19:11:36.963Z,91.53
2022-11-22T19:14:22.610Z,98.47
2022-11-22T19:17:08.168Z,125.07
2022-11-22T19:19:59.088Z,76.97
2022-11-22T19:22:45.480Z,67.72
2022-11-22T19:25:34.494Z,56.47
2022-11-22T19:28:20.081Z,46.35
2022-11-22T19:31:10.046Z,74.20
2022-11-22T19:33:55.938Z,102.22
2022-11-22T19:36:41.592Z,81.07
2022-11-22T19:39:28.422Z,91.75
2022-11-22T19:42:16.838Z,79.38
2022-11-22T19:45:03.458Z,77.72
2022-11-22T19:47:48.641Z,68.70
2022-11-22T19:50:34.167Z,77.25
2022-11-22T19:53:20.116Z,77.18
2022-11-22T19:56:26.655Z,97.80
2022-11-22T19:59:16.593Z,93.03
2022-11-22T20:02:02.251Z,89.85
2022-11-22T20:04:47.664Z,77.72
2022-11-22T20:07:32.999Z,78.88
2022-11-22T20:10:19.931Z,73.35
2022-11-22T20:13:10.367Z,56.78
2022-11-22T20:16:02.416Z,50.08
2022-11-22T20:18:55.956Z,55.13
2022-11-22T20:21:41.424Z,68.53
2022-11-22T20:24:28.558Z,60.90
2022-11-22T20:27:24.821Z,55.92
2022-11-22T20:30:12.679Z,77.88
2022-11-22T20:32:59.591Z,67.15
2022-11-22T20:35:45.731Z,64.28
2022-11-22T20:38:34.244Z,65.65
2022-11-22T20:41:22.743Z,65.07
2022-11-22T20:44:12.696Z,77.25
2022-11-22T20:47:01.500Z,49.33
2022-11-22T20:49:46.843Z,38.47
2022-11-22T20:52:32.589Z,29.95
2022-11-22T20:55:17.770Z,41.42
2022-11-22T20:58:03.205Z,49.67
2022-11-22T21:00:48.740Z,44.40
2022-11-22T21:03:35.457Z,41.47
2022-11-22T21:06:22.902Z,42.10
2022-11-22T21:09:08.232Z,54.10
2022-11-22T21:11:53.832Z,48.33
2022-11-22T21:14:39.421Z,43.08
2022-11-22T21:18:01.991Z,70.38
2022-11-22T21:20:33.676Z,62.00
2022-11-22T21:23:19.362Z,26.83
2022-11-22T21:26:06.078Z,31.52
2022-11-22T21:28:51.531Z,39.20
2022-11-22T21:31:37.939Z,44.28
2022-11-22T21:34:23.297Z,46.92
2022-11-22T21:37:08.811Z,51.15
2022-11-22T21:39:54.112Z,42.40
2022-11-22T21:42:40.691Z,29.58
2022-11-22T21:45:26.089Z,31.65
2022-11-22T21:48:11.648Z,37.78
2022-11-22T21:50:57.516Z,35.83
2022-11-22T21:53:43.210Z,36.40
2022-11-22T21:56:29.173Z,35.85
2022-11-22T21:59:14.503Z,57.92
2022-11-22T22:02:00.512Z,33.05
2022-11-22T22:04:45.956Z,50.47
2022-11-22T22:07:52.660Z,39.40
2022-11-22T22:10:37.028Z,46.45
2022-11-22T22:13:22.242Z,43.15
2022-11-22T22:16:12.754Z,31.92
2022-11-22T22:19:01.334Z,26.33
2022-11-22T22:21:48.611Z,27.45
2022-11-22T22:24:34.371Z,29.95
2022-11-22T22:27:19.946Z,31.92
2022-11-22T22:30:06.291Z,29.30
2022-11-22T22:32:51.536Z,33.08
2022-11-22T22:35:36.930Z,27.05
2022-11-22T22:38:22.118Z,30.48
2022-11-22T22:41:11.337Z,26.70
2022-11-22T22:43:57.247Z,24.67
2022-11-22T22:46:42.769Z,22.13
2022-11-22T22:49:29.565Z,23.73
2022-11-22T22:52:15.149Z,28.08
2022-11-22T22:55:00.571Z,31.17
2022-11-22T22:57:46.018Z,22.23
2022-11-22T23:00:31.226Z,49.63
2022-11-22T23:03:16.746Z,91.90
2022-11-22T23:06:10.621Z,79.32
2022-11-22T23:08:56.847Z,77.97
2022-11-22T23:12:00.993Z,62.58
2022-11-22T23:14:46.492Z,76.45
2022-11-22T23:17:31.805Z,92.28
2022-11-22T23:20:17.310Z,93.97
2022-11-22T23:23:02.708Z,107.95
2022-11-22T23:25:48.061Z,99.43
2022-11-22T23:28:34.150Z,100.03
2022-11-22T23:31:20.125Z,99.30
2022-11-22T23:34:05.636Z,79.97
2022-11-22T23:36:50.985Z,70.30
2022-11-22T23:39:36.578Z,75.38
2022-11-22T23:42:22.025Z,48.45
2022-11-22T23:45:08.171Z,54.53
2022-11-22T23:47:53.794Z,34.80
2022-11-22T23:50:39.461Z,71.13
2022-11-22T23:53:24.656Z,47.03
2022-11-22T23:56:20.290Z,42.63
2022-11-22T23:59:07.357Z,41.63
